sensor_id;sensor_type;location;lat;lon;timestamp;temperature;humidity
45983;DHT22;31711;47.158;7.346;2023-06-19T00:00:57;19.90;99.90
45983;DHT22;31711;47.158;7.346;2023-06-19T00:03:23;19.80;99.90
45983;DHT22;31711;47.158;7.346;2023-06-19T00:05:49;19.70;99.90
45983;DHT22;31711;47.158;7.346;2023-06-19T00:08:15;19.70;99.90
45983;DHT22;31711;47.158;7.346;2023-06-19T00:10:41;19.60;99.90
45983;DHT22;31711;47.158;7.346;2023-06-19T00:13:07;19.60;99.90
45983;DHT22;31711;47.158;7.346;2023-06-19T00:15:33;19.70;99.90
45983;DHT22;31711;47.158;7.346;2023-06-19T00:17:59;19.60;99.90
45983;DHT22;31711;47.158;7.346;2023-06-19T00:20:25;19.60;99.90
45983;DHT22;31711;47.158;7.346;2023-06-19T00:22:51;19.70;99.90
45983;DHT22;31711;47.158;7.346;2023-06-19T00:25:18;19.80;99.90
45983;DHT22;31711;47.158;7.346;2023-06-19T00:27:46;19.90;99.90
45983;DHT22;31711;47.158;7.346;2023-06-19T00:30:12;19.90;99.90
45983;DHT22;31711;47.158;7.346;2023-06-19T00:32:38;20.00;99.90
45983;DHT22;31711;47.158;7.346;2023-06-19T00:35:15;20.10;99.90
45983;DHT22;31711;47.158;7.346;2023-06-19T00:37:44;20.60;99.90
45983;DHT22;31711;47.158;7.346;2023-06-19T00:40:35;21.20;99.90
45983;DHT22;31711;47.158;7.346;2023-06-19T00:43:01;21.60;99.90
45983;DHT22;31711;47.158;7.346;2023-06-19T00:45:28;21.80;99.90
45983;DHT22;31711;47.158;7.346;2023-06-19T00:47:55;21.90;99.90
45983;DHT22;31711;47.158;7.346;2023-06-19T00:50:25;22.00;99.90
45983;DHT22;31711;47.158;7.346;2023-06-19T00:52:51;22.00;99.90
45983;DHT22;31711;47.158;7.346;2023-06-19T00:55:18;22.00;99.90
45983;DHT22;31711;47.158;7.346;2023-06-19T00:57:45;22.00;99.90
45983;DHT22;31711;47.158;7.346;2023-06-19T01:00:11;22.00;99.90
45983;DHT22;31711;47.158;7.346;2023-06-19T01:02:38;21.90;99.90
45983;DHT22;31711;47.158;7.346;2023-06-19T01:05:05;21.90;99.90
45983;DHT22;31711;47.158;7.346;2023-06-19T01:07:53;21.80;99.90
45983;DHT22;31711;47.158;7.346;2023-06-19T01:10:30;21.80;99.90
45983;DHT22;31711;47.158;7.346;2023-06-19T01:13:34;21.80;99.90
45983;DHT22;31711;47.158;7.346;2023-06-19T01:15:52;21.80;99.90
45983;DHT22;31711;47.158;7.346;2023-06-19T01:18:19;21.80;99.90
45983;DHT22;31711;47.158;7.346;2023-06-19T01:20:45;21.80;99.90
45983;DHT22;31711;47.158;7.346;2023-06-19T01:23:11;21.80;99.90
45983;DHT22;31711;47.158;7.346;2023-06-19T01:25:37;21.80;99.90
45983;DHT22;31711;47.158;7.346;2023-06-19T01:28:09;21.70;99.90
45983;DHT22;31711;47.158;7.346;2023-06-19T01:30:37;21.70;99.90
45983;DHT22;31711;47.158;7.346;2023-06-19T01:33:20;21.70;99.90
45983;DHT22;31711;47.158;7.346;2023-06-19T01:35:50;21.60;99.90
45983;DHT22;31711;47.158;7.346;2023-06-19T01:38:16;21.70;99.90
45983;DHT22;31711;47.158;7.346;2023-06-19T01:40:44;21.80;99.90
45983;DHT22;31711;47.158;7.346;2023-06-19T01:43:10;21.60;99.90
45983;DHT22;31711;47.158;7.346;2023-06-19T01:45:37;21.20;99.90
45983;DHT22;31711;47.158;7.346;2023-06-19T01:48:03;21.10;99.90
45983;DHT22;31711;47.158;7.346;2023-06-19T01:50:29;20.90;99.90
45983;DHT22;31711;47.158;7.346;2023-06-19T01:52:55;20.60;99.90
45983;DHT22;31711;47.158;7.346;2023-06-19T01:55:21;20.60;99.90
45983;DHT22;31711;47.158;7.346;2023-06-19T01:57:47;20.60;99.90
45983;DHT22;31711;47.158;7.346;2023-06-19T02:00:13;20.40;99.90
45983;DHT22;31711;47.158;7.346;2023-06-19T02:02:40;20.30;99.90
45983;DHT22;31711;47.158;7.346;2023-06-19T02:05:06;20.40;99.90
45983;DHT22;31711;47.158;7.346;2023-06-19T02:07:32;20.30;99.90
45983;DHT22;31711;47.158;7.346;2023-06-19T02:09:58;20.20;99.90
45983;DHT22;31711;47.158;7.346;2023-06-19T02:12:24;20.10;99.90
45983;DHT22;31711;47.158;7.346;2023-06-19T02:14:50;20.00;99.90
45983;DHT22;31711;47.158;7.346;2023-06-19T02:17:16;19.90;99.90
45983;DHT22;31711;47.158;7.346;2023-06-19T02:19:41;19.80;99.90
45983;DHT22;31711;47.158;7.346;2023-06-19T02:22:08;19.70;99.90
45983;DHT22;31711;47.158;7.346;2023-06-19T02:24:34;19.50;99.90
45983;DHT22;31711;47.158;7.346;2023-06-19T02:27:00;19.50;99.90
45983;DHT22;31711;47.158;7.346;2023-06-19T02:29:27;19.50;99.90
45983;DHT22;31711;47.158;7.346;2023-06-19T02:31:55;19.60;99.90
45983;DHT22;31711;47.158;7.346;2023-06-19T02:34:22;19.60;99.90
45983;DHT22;31711;47.158;7.346;2023-06-19T02:36:50;19.50;99.90
45983;DHT22;31711;47.158;7.346;2023-06-19T02:39:16;19.40;99.90
45983;DHT22;31711;47.158;7.346;2023-06-19T02:41:42;19.30;99.90
45983;DHT22;31711;47.158;7.346;2023-06-19T02:44:12;19.20;99.90
45983;DHT22;31711;47.158;7.346;2023-06-19T02:46:38;18.90;99.90
45983;DHT22;31711;47.158;7.346;2023-06-19T02:49:04;18.80;99.90
45983;DHT22;31711;47.158;7.346;2023-06-19T02:51:30;18.80;99.90
45983;DHT22;31711;47.158;7.346;2023-06-19T02:53:56;19.00;99.90
45983;DHT22;31711;47.158;7.346;2023-06-19T02:56:22;19.10;99.90
45983;DHT22;31711;47.158;7.346;2023-06-19T02:58:48;19.00;99.90
45983;DHT22;31711;47.158;7.346;2023-06-19T03:01:14;18.90;99.90
45983;DHT22;31711;47.158;7.346;2023-06-19T03:03:40;18.80;99.90
45983;DHT22;31711;47.158;7.346;2023-06-19T03:06:07;18.80;99.90
45983;DHT22;31711;47.158;7.346;2023-06-19T03:08:34;18.80;99.90
45983;DHT22;31711;47.158;7.346;2023-06-19T03:11:00;18.70;99.90
45983;DHT22;31711;47.158;7.346;2023-06-19T03:13:26;18.50;99.90
45983;DHT22;31711;47.158;7.346;2023-06-19T03:15:52;18.30;99.90
45983;DHT22;31711;47.158;7.346;2023-06-19T03:18:18;18.30;99.90
45983;DHT22;31711;47.158;7.346;2023-06-19T03:20:44;18.40;99.90
45983;DHT22;31711;47.158;7.346;2023-06-19T03:23:10;18.40;99.90
45983;DHT22;31711;47.158;7.346;2023-06-19T03:25:36;18.50;99.90
45983;DHT22;31711;47.158;7.346;2023-06-19T03:28:02;18.40;99.90
45983;DHT22;31711;47.158;7.346;2023-06-19T03:30:30;18.40;99.90
45983;DHT22;31711;47.158;7.346;2023-06-19T03:32:56;18.40;99.90
45983;DHT22;31711;47.158;7.346;2023-06-19T03:35:22;18.30;99.90
45983;DHT22;31711;47.158;7.346;2023-06-19T03:37:48;18.40;99.90
45983;DHT22;31711;47.158;7.346;2023-06-19T03:40:14;18.50;99.90
45983;DHT22;31711;47.158;7.346;2023-06-19T03:42:40;18.50;99.90
45983;DHT22;31711;47.158;7.346;2023-06-19T03:45:06;18.60;99.90
45983;DHT22;31711;47.158;7.346;2023-06-19T03:47:33;18.60;99.90
45983;DHT22;31711;47.158;7.346;2023-06-19T03:49:59;18.70;99.90
45983;DHT22;31711;47.158;7.346;2023-06-19T03:52:25;18.60;99.90
45983;DHT22;31711;47.158;7.346;2023-06-19T03:54:51;18.60;99.90
45983;DHT22;31711;47.158;7.346;2023-06-19T03:57:17;18.60;99.90
45983;DHT22;31711;47.158;7.346;2023-06-19T03:59:42;18.50;99.90
45983;DHT22;31711;47.158;7.346;2023-06-19T04:02:08;18.30;99.90
45983;DHT22;31711;47.158;7.346;2023-06-19T04:04:34;18.20;99.90
45983;DHT22;31711;47.158;7.346;2023-06-19T04:07:00;18.10;99.90
45983;DHT22;31711;47.158;7.346;2023-06-19T04:09:26;18.10;99.90
45983;DHT22;31711;47.158;7.346;2023-06-19T04:11:52;18.10;99.90
45983;DHT22;31711;47.158;7.346;2023-06-19T04:14:18;18.10;99.90
45983;DHT22;31711;47.158;7.346;2023-06-19T04:16:44;18.20;99.90
45983;DHT22;31711;47.158;7.346;2023-06-19T04:19:10;18.10;99.90
45983;DHT22;31711;47.158;7.346;2023-06-19T04:21:36;18.30;99.90
45983;DHT22;31711;47.158;7.346;2023-06-19T04:24:02;18.40;99.90
45983;DHT22;31711;47.158;7.346;2023-06-19T04:26:30;18.40;99.90
45983;DHT22;31711;47.158;7.346;2023-06-19T04:28:56;18.40;99.90
45983;DHT22;31711;47.158;7.346;2023-06-19T04:31:22;18.30;99.90
45983;DHT22;31711;47.158;7.346;2023-06-19T04:33:49;18.40;99.90
45983;DHT22;31711;47.158;7.346;2023-06-19T04:36:15;18.50;99.90
45983;DHT22;31711;47.158;7.346;2023-06-19T04:38:41;18.50;99.90
45983;DHT22;31711;47.158;7.346;2023-06-19T04:41:07;18.60;99.90
45983;DHT22;31711;47.158;7.346;2023-06-19T04:43:33;18.50;99.90
45983;DHT22;31711;47.158;7.346;2023-06-19T04:45:59;18.50;99.90
45983;DHT22;31711;47.158;7.346;2023-06-19T04:48:26;18.60;99.90
45983;DHT22;31711;47.158;7.346;2023-06-19T04:50:52;18.60;99.90
45983;DHT22;31711;47.158;7.346;2023-06-19T04:53:18;18.60;99.90
45983;DHT22;31711;47.158;7.346;2023-06-19T04:55:44;18.60;99.90
45983;DHT22;31711;47.158;7.346;2023-06-19T04:58:10;18.50;99.90
45983;DHT22;31711;47.158;7.346;2023-06-19T05:00:36;18.60;99.90
45983;DHT22;31711;47.158;7.346;2023-06-19T05:03:02;18.70;99.90
45983;DHT22;31711;47.158;7.346;2023-06-19T05:05:28;18.70;99.90
45983;DHT22;31711;47.158;7.346;2023-06-19T05:07:54;18.70;99.90
45983;DHT22;31711;47.158;7.346;2023-06-19T05:10:20;18.90;99.90
45983;DHT22;31711;47.158;7.346;2023-06-19T05:12:46;19.00;99.90
45983;DHT22;31711;47.158;7.346;2023-06-19T05:15:12;19.00;99.90
45983;DHT22;31711;47.158;7.346;2023-06-19T05:17:38;19.00;99.90
45983;DHT22;31711;47.158;7.346;2023-06-19T05:20:05;19.10;99.90
45983;DHT22;31711;47.158;7.346;2023-06-19T05:22:33;19.20;99.90
45983;DHT22;31711;47.158;7.346;2023-06-19T05:25:00;19.40;99.90
45983;DHT22;31711;47.158;7.346;2023-06-19T05:27:26;19.50;99.90
45983;DHT22;31711;47.158;7.346;2023-06-19T05:29:52;19.50;99.90
45983;DHT22;31711;47.158;7.346;2023-06-19T05:32:18;19.50;99.90
45983;DHT22;31711;47.158;7.346;2023-06-19T05:34:44;19.60;99.90
45983;DHT22;31711;47.158;7.346;2023-06-19T05:37:10;19.70;99.90
45983;DHT22;31711;47.158;7.346;2023-06-19T05:39:36;20.00;99.90
45983;DHT22;31711;47.158;7.346;2023-06-19T05:42:02;20.10;99.90
45983;DHT22;31711;47.158;7.346;2023-06-19T05:44:28;20.30;99.90
45983;DHT22;31711;47.158;7.346;2023-06-19T05:46:54;20.40;99.90
45983;DHT22;31711;47.158;7.346;2023-06-19T05:49:19;20.50;99.90
45983;DHT22;31711;47.158;7.346;2023-06-19T05:51:45;20.40;99.90
45983;DHT22;31711;47.158;7.346;2023-06-19T05:54:11;20.40;99.90
45983;DHT22;31711;47.158;7.346;2023-06-19T05:56:37;20.60;99.90
45983;DHT22;31711;47.158;7.346;2023-06-19T05:59:03;20.70;99.90
45983;DHT22;31711;47.158;7.346;2023-06-19T06:01:30;20.70;99.90
45983;DHT22;31711;47.158;7.346;2023-06-19T06:03:56;20.90;99.90
45983;DHT22;31711;47.158;7.346;2023-06-19T06:06:23;20.80;99.90
45983;DHT22;31711;47.158;7.346;2023-06-19T06:08:49;20.80;99.90
45983;DHT22;31711;47.158;7.346;2023-06-19T06:11:17;20.70;99.90
45983;DHT22;31711;47.158;7.346;2023-06-19T06:13:43;20.60;99.90
45983;DHT22;31711;47.158;7.346;2023-06-19T06:16:09;20.70;99.90
45983;DHT22;31711;47.158;7.346;2023-06-19T06:18:35;20.90;99.90
45983;DHT22;31711;47.158;7.346;2023-06-19T06:21:01;21.10;99.90
45983;DHT22;31711;47.158;7.346;2023-06-19T06:23:27;21.30;99.90
45983;DHT22;31711;47.158;7.346;2023-06-19T06:25:53;21.40;99.90
45983;DHT22;31711;47.158;7.346;2023-06-19T06:28:27;21.40;99.90
45983;DHT22;31711;47.158;7.346;2023-06-19T06:30:53;21.40;99.90
45983;DHT22;31711;47.158;7.346;2023-06-19T06:33:19;20.90;99.90
45983;DHT22;31711;47.158;7.346;2023-06-19T06:35:45;20.70;99.90
45983;DHT22;31711;47.158;7.346;2023-06-19T06:38:11;20.70;99.90
45983;DHT22;31711;47.158;7.346;2023-06-19T06:40:37;20.70;99.90
45983;DHT22;31711;47.158;7.346;2023-06-19T06:43:03;20.90;99.90
45983;DHT22;31711;47.158;7.346;2023-06-19T06:45:30;21.00;99.90
45983;DHT22;31711;47.158;7.346;2023-06-19T06:47:56;21.20;99.90
45983;DHT22;31711;47.158;7.346;2023-06-19T06:50:21;21.10;99.90
45983;DHT22;31711;47.158;7.346;2023-06-19T06:52:47;21.20;99.90
45983;DHT22;31711;47.158;7.346;2023-06-19T06:55:13;21.60;99.90
45983;DHT22;31711;47.158;7.346;2023-06-19T06:57:39;21.60;99.90
45983;DHT22;31711;47.158;7.346;2023-06-19T07:00:06;21.80;99.90
45983;DHT22;31711;47.158;7.346;2023-06-19T07:02:35;21.80;99.90
45983;DHT22;31711;47.158;7.346;2023-06-19T07:05:03;21.80;99.90
45983;DHT22;31711;47.158;7.346;2023-06-19T07:07:28;21.90;99.90
45983;DHT22;31711;47.158;7.346;2023-06-19T07:09:54;22.00;99.90
45983;DHT22;31711;47.158;7.346;2023-06-19T07:12:20;22.00;99.90
45983;DHT22;31711;47.158;7.346;2023-06-19T07:14:46;22.10;99.90
45983;DHT22;31711;47.158;7.346;2023-06-19T07:17:12;22.10;99.90
45983;DHT22;31711;47.158;7.346;2023-06-19T07:19:38;22.30;99.90
45983;DHT22;31711;47.158;7.346;2023-06-19T07:22:04;22.20;99.90
45983;DHT22;31711;47.158;7.346;2023-06-19T07:24:30;22.10;99.90
45983;DHT22;31711;47.158;7.346;2023-06-19T07:26:56;22.00;99.90
45983;DHT22;31711;47.158;7.346;2023-06-19T07:29:22;22.10;99.90
45983;DHT22;31711;47.158;7.346;2023-06-19T07:31:48;22.00;99.90
45983;DHT22;31711;47.158;7.346;2023-06-19T07:34:14;22.00;99.90
45983;DHT22;31711;47.158;7.346;2023-06-19T07:36:40;22.10;99.90
45983;DHT22;31711;47.158;7.346;2023-06-19T07:39:07;22.20;99.90
45983;DHT22;31711;47.158;7.346;2023-06-19T07:41:33;22.20;99.90
45983;DHT22;31711;47.158;7.346;2023-06-19T07:43:59;22.30;99.90
45983;DHT22;31711;47.158;7.346;2023-06-19T07:46:25;22.40;99.90
45983;DHT22;31711;47.158;7.346;2023-06-19T07:48:51;22.50;99.90
45983;DHT22;31711;47.158;7.346;2023-06-19T07:51:17;22.60;99.90
45983;DHT22;31711;47.158;7.346;2023-06-19T07:53:43;22.80;99.90
45983;DHT22;31711;47.158;7.346;2023-06-19T07:56:09;22.60;99.90
45983;DHT22;31711;47.158;7.346;2023-06-19T07:58:35;22.70;99.90
45983;DHT22;31711;47.158;7.346;2023-06-19T08:01:01;22.90;99.90
45983;DHT22;31711;47.158;7.346;2023-06-19T08:03:27;23.10;99.90
45983;DHT22;31711;47.158;7.346;2023-06-19T08:05:53;23.20;99.90
45983;DHT22;31711;47.158;7.346;2023-06-19T08:08:19;23.40;99.90
45983;DHT22;31711;47.158;7.346;2023-06-19T08:10:45;23.50;99.90
45983;DHT22;31711;47.158;7.346;2023-06-19T08:13:11;23.70;99.90
45983;DHT22;31711;47.158;7.346;2023-06-19T08:15:37;23.70;99.90
45983;DHT22;31711;47.158;7.346;2023-06-19T08:18:03;23.90;99.90
45983;DHT22;31711;47.158;7.346;2023-06-19T08:20:29;24.10;99.90
45983;DHT22;31711;47.158;7.346;2023-06-19T08:22:55;24.30;99.90
45983;DHT22;31711;47.158;7.346;2023-06-19T08:25:22;24.00;99.90
45983;DHT22;31711;47.158;7.346;2023-06-19T08:27:48;24.00;99.90
45983;DHT22;31711;47.158;7.346;2023-06-19T08:30:14;23.90;99.90
45983;DHT22;31711;47.158;7.346;2023-06-19T08:32:40;23.90;99.90
45983;DHT22;31711;47.158;7.346;2023-06-19T08:35:06;24.20;99.90
45983;DHT22;31711;47.158;7.346;2023-06-19T08:37:32;24.30;99.90
45983;DHT22;31711;47.158;7.346;2023-06-19T08:39:58;24.30;99.90
45983;DHT22;31711;47.158;7.346;2023-06-19T08:42:25;24.30;99.90
45983;DHT22;31711;47.158;7.346;2023-06-19T08:44:51;24.40;99.90
45983;DHT22;31711;47.158;7.346;2023-06-19T08:47:17;24.50;99.90
45983;DHT22;31711;47.158;7.346;2023-06-19T08:49:43;24.70;99.90
45983;DHT22;31711;47.158;7.346;2023-06-19T08:52:09;24.80;99.90
45983;DHT22;31711;47.158;7.346;2023-06-19T08:54:35;25.20;99.90
45983;DHT22;31711;47.158;7.346;2023-06-19T08:57:10;25.60;99.90
45983;DHT22;31711;47.158;7.346;2023-06-19T08:59:36;25.90;99.90
45983;DHT22;31711;47.158;7.346;2023-06-19T09:02:02;26.00;99.90
45983;DHT22;31711;47.158;7.346;2023-06-19T09:04:28;26.00;99.90
45983;DHT22;31711;47.158;7.346;2023-06-19T09:07:00;26.00;99.90
45983;DHT22;31711;47.158;7.346;2023-06-19T09:09:26;25.70;99.90
45983;DHT22;31711;47.158;7.346;2023-06-19T09:14:36;25.70;99.90
45983;DHT22;31711;47.158;7.346;2023-06-19T09:17:06;25.70;99.90
45983;DHT22;31711;47.158;7.346;2023-06-19T09:19:34;25.40;99.90
45983;DHT22;31711;47.158;7.346;2023-06-19T09:22:07;25.50;99.90
45983;DHT22;31711;47.158;7.346;2023-06-19T09:24:39;25.50;99.90
45983;DHT22;31711;47.158;7.346;2023-06-19T09:27:09;25.70;99.90
45983;DHT22;31711;47.158;7.346;2023-06-19T09:29:41;26.10;99.90
45983;DHT22;31711;47.158;7.346;2023-06-19T09:32:24;26.40;99.90
45983;DHT22;31711;47.158;7.346;2023-06-19T09:34:53;26.70;99.90
45983;DHT22;31711;47.158;7.346;2023-06-19T09:37:24;26.80;99.90
45983;DHT22;31711;47.158;7.346;2023-06-19T09:39:55;26.80;99.90
45983;DHT22;31711;47.158;7.346;2023-06-19T09:42:32;26.90;99.90
45983;DHT22;31711;47.158;7.346;2023-06-19T09:45:18;26.90;99.90
45983;DHT22;31711;47.158;7.346;2023-06-19T09:47:47;26.90;99.90
45983;DHT22;31711;47.158;7.346;2023-06-19T09:52:44;27.10;99.90
45983;DHT22;31711;47.158;7.346;2023-06-19T09:55:11;27.20;99.90
45983;DHT22;31711;47.158;7.346;2023-06-19T09:57:41;27.20;99.90
45983;DHT22;31711;47.158;7.346;2023-06-19T10:00:10;27.30;99.90
45983;DHT22;31711;47.158;7.346;2023-06-19T10:02:43;27.30;99.90
45983;DHT22;31711;47.158;7.346;2023-06-19T10:05:10;27.30;99.90
45983;DHT22;31711;47.158;7.346;2023-06-19T10:07:40;27.30;99.90
45983;DHT22;31711;47.158;7.346;2023-06-19T10:10:11;27.20;99.90
45983;DHT22;31711;47.158;7.346;2023-06-19T10:12:43;27.20;99.90
45983;DHT22;31711;47.158;7.346;2023-06-19T10:15:21;27.20;99.90
45983;DHT22;31711;47.158;7.346;2023-06-19T10:18:04;27.40;99.90
45983;DHT22;31711;47.158;7.346;2023-06-19T10:20:35;27.60;99.90
45983;DHT22;31711;47.158;7.346;2023-06-19T10:23:10;27.40;99.20
45983;DHT22;31711;47.158;7.346;2023-06-19T10:25:38;27.60;99.90
45983;DHT22;31711;47.158;7.346;2023-06-19T10:28:22;28.20;99.70
45983;DHT22;31711;47.158;7.346;2023-06-19T10:33:29;28.70;97.20
45983;DHT22;31711;47.158;7.346;2023-06-19T10:35:58;28.80;96.70
45983;DHT22;31711;47.158;7.346;2023-06-19T10:38:26;28.60;96.80
45983;DHT22;31711;47.158;7.346;2023-06-19T10:40:52;28.40;97.40
45983;DHT22;31711;47.158;7.346;2023-06-19T10:43:22;28.20;95.00
45983;DHT22;31711;47.158;7.346;2023-06-19T10:45:53;28.00;95.30
45983;DHT22;31711;47.158;7.346;2023-06-19T10:48:23;28.40;95.10
45983;DHT22;31711;47.158;7.346;2023-06-19T10:53:32;28.00;94.50
45983;DHT22;31711;47.158;7.346;2023-06-19T10:56:02;28.20;94.90
45983;DHT22;31711;47.158;7.346;2023-06-19T10:58:29;28.10;94.70
45983;DHT22;31711;47.158;7.346;2023-06-19T11:00:55;28.70;94.70
45983;DHT22;31711;47.158;7.346;2023-06-19T11:03:21;28.50;93.20
45983;DHT22;31711;47.158;7.346;2023-06-19T11:05:48;28.50;94.30
45983;DHT22;31711;47.158;7.346;2023-06-19T11:08:19;28.50;93.90
45983;DHT22;31711;47.158;7.346;2023-06-19T11:10:45;28.70;93.60
45983;DHT22;31711;47.158;7.346;2023-06-19T11:13:15;28.30;93.10
45983;DHT22;31711;47.158;7.346;2023-06-19T11:18:08;27.70;94.10
45983;DHT22;31711;47.158;7.346;2023-06-19T11:23:10;28.00;94.40
45983;DHT22;31711;47.158;7.346;2023-06-19T11:25:40;28.10;94.90
45983;DHT22;31711;47.158;7.346;2023-06-19T11:30:39;28.10;93.60
45983;DHT22;31711;47.158;7.346;2023-06-19T11:33:16;27.90;94.20
45983;DHT22;31711;47.158;7.346;2023-06-19T11:35:47;28.00;94.30
45983;DHT22;31711;47.158;7.346;2023-06-19T11:38:20;27.80;94.20
45983;DHT22;31711;47.158;7.346;2023-06-19T11:40:47;27.50;93.70
45983;DHT22;31711;47.158;7.346;2023-06-19T11:43:34;27.30;95.00
45983;DHT22;31711;47.158;7.346;2023-06-19T11:46:07;28.00;95.50
45983;DHT22;31711;47.158;7.346;2023-06-19T11:48:37;27.30;95.80
45983;DHT22;31711;47.158;7.346;2023-06-19T11:51:03;27.20;96.40
45983;DHT22;31711;47.158;7.346;2023-06-19T11:58:22;27.40;95.60
45983;DHT22;31711;47.158;7.346;2023-06-19T12:00:48;27.50;97.30
45983;DHT22;31711;47.158;7.346;2023-06-19T12:03:14;27.50;96.50
45983;DHT22;31711;47.158;7.346;2023-06-19T12:10:34;27.80;95.80
45983;DHT22;31711;47.158;7.346;2023-06-19T12:13:00;27.70;96.00
45983;DHT22;31711;47.158;7.346;2023-06-19T12:15:26;27.90;95.10
45983;DHT22;31711;47.158;7.346;2023-06-19T12:17:52;27.90;95.40
45983;DHT22;31711;47.158;7.346;2023-06-19T12:20:18;28.20;95.20
45983;DHT22;31711;47.158;7.346;2023-06-19T12:22:44;28.10;94.50
45983;DHT22;31711;47.158;7.346;2023-06-19T12:25:10;28.50;94.30
45983;DHT22;31711;47.158;7.346;2023-06-19T12:27:40;28.80;94.70
45983;DHT22;31711;47.158;7.346;2023-06-19T12:30:07;28.90;93.70
45983;DHT22;31711;47.158;7.346;2023-06-19T12:32:33;28.70;93.90
45983;DHT22;31711;47.158;7.346;2023-06-19T12:35:00;29.00;93.50
45983;DHT22;31711;47.158;7.346;2023-06-19T12:37:26;28.60;92.90
45983;DHT22;31711;47.158;7.346;2023-06-19T12:39:52;28.60;92.80
45983;DHT22;31711;47.158;7.346;2023-06-19T12:42:18;28.90;93.10
45983;DHT22;31711;47.158;7.346;2023-06-19T12:44:44;29.40;93.80
45983;DHT22;31711;47.158;7.346;2023-06-19T12:47:10;29.50;92.60
45983;DHT22;31711;47.158;7.346;2023-06-19T12:49:36;29.50;92.40
45983;DHT22;31711;47.158;7.346;2023-06-19T12:52:02;29.40;92.80
45983;DHT22;31711;47.158;7.346;2023-06-19T12:54:28;29.60;93.40
45983;DHT22;31711;47.158;7.346;2023-06-19T12:56:55;29.70;92.40
45983;DHT22;31711;47.158;7.346;2023-06-19T12:59:21;30.00;91.80
45983;DHT22;31711;47.158;7.346;2023-06-19T13:01:47;30.30;90.60
45983;DHT22;31711;47.158;7.346;2023-06-19T13:04:13;30.50;91.90
45983;DHT22;31711;47.158;7.346;2023-06-19T13:06:39;30.70;91.00
45983;DHT22;31711;47.158;7.346;2023-06-19T13:09:06;30.70;88.60
45983;DHT22;31711;47.158;7.346;2023-06-19T13:11:32;30.60;86.10
45983;DHT22;31711;47.158;7.346;2023-06-19T13:14:00;30.50;86.60
45983;DHT22;31711;47.158;7.346;2023-06-19T13:16:26;30.80;86.00
45983;DHT22;31711;47.158;7.346;2023-06-19T13:18:52;31.00;84.10
45983;DHT22;31711;47.158;7.346;2023-06-19T13:21:18;30.80;85.40
45983;DHT22;31711;47.158;7.346;2023-06-19T13:23:44;30.70;83.40
45983;DHT22;31711;47.158;7.346;2023-06-19T13:26:10;30.70;82.80
45983;DHT22;31711;47.158;7.346;2023-06-19T13:28:37;30.70;83.40
45983;DHT22;31711;47.158;7.346;2023-06-19T13:31:03;30.90;83.90
45983;DHT22;31711;47.158;7.346;2023-06-19T13:33:29;31.30;81.90
45983;DHT22;31711;47.158;7.346;2023-06-19T13:35:55;30.80;83.00
45983;DHT22;31711;47.158;7.346;2023-06-19T13:38:22;31.10;86.20
45983;DHT22;31711;47.158;7.346;2023-06-19T13:40:48;31.10;86.10
45983;DHT22;31711;47.158;7.346;2023-06-19T13:43:14;30.90;84.70
45983;DHT22;31711;47.158;7.346;2023-06-19T13:45:40;31.20;85.20
45983;DHT22;31711;47.158;7.346;2023-06-19T13:48:07;31.30;87.20
45983;DHT22;31711;47.158;7.346;2023-06-19T13:50:33;31.20;88.10
45983;DHT22;31711;47.158;7.346;2023-06-19T13:53:00;31.40;86.60
45983;DHT22;31711;47.158;7.346;2023-06-19T13:55:26;31.60;85.60
45983;DHT22;31711;47.158;7.346;2023-06-19T13:57:52;31.70;84.90
45983;DHT22;31711;47.158;7.346;2023-06-19T14:00:19;31.70;83.50
45983;DHT22;31711;47.158;7.346;2023-06-19T14:02:45;31.60;84.60
45983;DHT22;31711;47.158;7.346;2023-06-19T14:05:11;31.40;84.40
45983;DHT22;31711;47.158;7.346;2023-06-19T14:07:41;31.60;85.70
45983;DHT22;31711;47.158;7.346;2023-06-19T14:10:08;31.80;86.00
45983;DHT22;31711;47.158;7.346;2023-06-19T14:12:34;31.80;85.20
45983;DHT22;31711;47.158;7.346;2023-06-19T14:15:00;31.80;84.80
45983;DHT22;31711;47.158;7.346;2023-06-19T14:17:26;31.80;84.80
45983;DHT22;31711;47.158;7.346;2023-06-19T14:19:53;31.60;84.80
45983;DHT22;31711;47.158;7.346;2023-06-19T14:24:47;31.50;87.50
45983;DHT22;31711;47.158;7.346;2023-06-19T14:27:13;31.60;89.50
45983;DHT22;31711;47.158;7.346;2023-06-19T14:36:59;31.20;84.60
45983;DHT22;31711;47.158;7.346;2023-06-19T14:39:25;31.10;84.80
45983;DHT22;31711;47.158;7.346;2023-06-19T14:41:51;30.70;91.00
45983;DHT22;31711;47.158;7.346;2023-06-19T14:44:17;30.70;87.90
45983;DHT22;31711;47.158;7.346;2023-06-19T14:49:11;30.70;84.90
45983;DHT22;31711;47.158;7.346;2023-06-19T14:51:42;30.60;83.40
45983;DHT22;31711;47.158;7.346;2023-06-19T14:54:08;30.50;95.10
45983;DHT22;31711;47.158;7.346;2023-06-19T14:56:34;30.50;93.60
45983;DHT22;31711;47.158;7.346;2023-06-19T15:06:19;30.70;83.30
45983;DHT22;31711;47.158;7.346;2023-06-19T15:08:45;30.80;84.50
45983;DHT22;31711;47.158;7.346;2023-06-19T15:11:11;30.90;84.80
45983;DHT22;31711;47.158;7.346;2023-06-19T15:13:37;30.70;84.60
45983;DHT22;31711;47.158;7.346;2023-06-19T15:16:03;30.80;85.20
45983;DHT22;31711;47.158;7.346;2023-06-19T15:18:30;31.10;85.40
45983;DHT22;31711;47.158;7.346;2023-06-19T15:20:56;31.10;84.00
45983;DHT22;31711;47.158;7.346;2023-06-19T15:23:22;31.00;84.30
45983;DHT22;31711;47.158;7.346;2023-06-19T15:25:48;30.80;86.60
45983;DHT22;31711;47.158;7.346;2023-06-19T15:28:14;30.80;84.40
45983;DHT22;31711;47.158;7.346;2023-06-19T15:30:40;30.70;86.00
45983;DHT22;31711;47.158;7.346;2023-06-19T15:33:06;30.70;86.40
45983;DHT22;31711;47.158;7.346;2023-06-19T15:35:32;30.70;85.80
45983;DHT22;31711;47.158;7.346;2023-06-19T15:37:58;30.70;86.40
45983;DHT22;31711;47.158;7.346;2023-06-19T15:40:25;30.60;83.30
45983;DHT22;31711;47.158;7.346;2023-06-19T15:42:53;30.30;82.60
45983;DHT22;31711;47.158;7.346;2023-06-19T15:45:19;30.30;83.90
45983;DHT22;31711;47.158;7.346;2023-06-19T15:47:45;30.40;84.50
45983;DHT22;31711;47.158;7.346;2023-06-19T15:50:11;30.40;83.50
45983;DHT22;31711;47.158;7.346;2023-06-19T15:52:37;30.50;83.10
45983;DHT22;31711;47.158;7.346;2023-06-19T15:55:03;30.30;83.40
45983;DHT22;31711;47.158;7.346;2023-06-19T15:57:30;30.40;83.80
45983;DHT22;31711;47.158;7.346;2023-06-19T15:59:56;30.40;81.80
45983;DHT22;31711;47.158;7.346;2023-06-19T16:02:22;30.40;82.00
45983;DHT22;31711;47.158;7.346;2023-06-19T16:04:49;30.30;81.40
45983;DHT22;31711;47.158;7.346;2023-06-19T16:07:15;30.10;82.90
45983;DHT22;31711;47.158;7.346;2023-06-19T16:09:42;30.20;83.20
45983;DHT22;31711;47.158;7.346;2023-06-19T16:12:08;30.20;84.00
45983;DHT22;31711;47.158;7.346;2023-06-19T16:14:34;29.90;84.00
45983;DHT22;31711;47.158;7.346;2023-06-19T16:17:01;30.00;84.30